sensor_id;sensor_type;location;lat;lon;timestamp;pressure;altitude;pressure_sealevel;temperature;humidity
31483;BME280;18103;52.246;8.052;2023-05-24T00:01:52;101094.50;;;8.99;75.86
31483;BME280;18103;52.246;8.052;2023-05-24T00:04:21;101099.94;;;8.96;75.58
31483;BME280;18103;52.246;8.052;2023-05-24T00:06:46;101097.03;;;9.01;75.90
31483;BME280;18103;52.246;8.052;2023-05-24T00:09:12;101095.91;;;8.90;76.79
31483;BME280;18103;52.246;8.052;2023-05-24T00:11:42;101097.41;;;8.95;76.38
31483;BME280;18103;52.246;8.052;2023-05-24T00:14:10;101088.19;;;8.87;77.01
31483;BME280;18103;52.246;8.052;2023-05-24T00:16:37;101086.75;;;8.82;76.32
31483;BME280;18103;52.246;8.052;2023-05-24T00:19:03;101085.66;;;8.86;77.07
31483;BME280;18103;52.246;8.052;2023-05-24T00:21:28;101082.16;;;8.85;76.97
31483;BME280;18103;52.246;8.052;2023-05-24T00:23:59;101083.38;;;8.80;77.82
31483;BME280;18103;52.246;8.052;2023-05-24T00:26:24;101078.19;;;8.78;77.43
31483;BME280;18103;52.246;8.052;2023-05-24T00:28:52;101086.19;;;8.77;78.05
31483;BME280;18103;52.246;8.052;2023-05-24T00:31:23;101081.94;;;8.74;77.99
31483;BME280;18103;52.246;8.052;2023-05-24T00:33:53;101071.59;;;8.71;77.93
31483;BME280;18103;52.246;8.052;2023-05-24T00:36:19;101073.41;;;8.70;77.82
31483;BME280;18103;52.246;8.052;2023-05-24T00:38:47;101072.06;;;8.63;78.13
31483;BME280;18103;52.246;8.052;2023-05-24T00:41:12;101083.53;;;8.62;78.36
31483;BME280;18103;52.246;8.052;2023-05-24T00:43:41;101074.09;;;8.58;78.89
31483;BME280;18103;52.246;8.052;2023-05-24T00:46:17;101066.22;;;8.42;79.46
31483;BME280;18103;52.246;8.052;2023-05-24T00:48:43;101067.50;;;8.51;78.78
31483;BME280;18103;52.246;8.052;2023-05-24T00:51:14;101066.09;;;8.45;79.09
31483;BME280;18103;52.246;8.052;2023-05-24T00:53:41;101065.66;;;8.37;79.26
31483;BME280;18103;52.246;8.052;2023-05-24T00:56:08;101065.06;;;8.32;79.84
31483;BME280;18103;52.246;8.052;2023-05-24T00:58:35;101053.69;;;8.31;79.87
31483;BME280;18103;52.246;8.052;2023-05-24T01:01:02;101052.94;;;8.29;80.03
31483;BME280;18103;52.246;8.052;2023-05-24T01:03:28;101058.78;;;8.34;80.04
31483;BME280;18103;52.246;8.052;2023-05-24T01:06:02;101063.19;;;8.34;79.90
31483;BME280;18103;52.246;8.052;2023-05-24T01:14:17;101054.91;;;8.26;80.37
31483;BME280;18103;52.246;8.052;2023-05-24T01:17:03;101053.28;;;8.23;80.56
31483;BME280;18103;52.246;8.052;2023-05-24T01:27:30;101038.72;;;8.17;80.58
31483;BME280;18103;52.246;8.052;2023-05-24T01:30:00;101032.25;;;8.07;80.92
31483;BME280;18103;52.246;8.052;2023-05-24T01:32:26;101031.59;;;8.03;81.08
31483;BME280;18103;52.246;8.052;2023-05-24T01:34:54;101040.94;;;8.09;80.42
31483;BME280;18103;52.246;8.052;2023-05-24T01:37:22;101041.94;;;8.07;81.09
31483;BME280;18103;52.246;8.052;2023-05-24T01:39:50;101045.78;;;8.01;81.44
31483;BME280;18103;52.246;8.052;2023-05-24T01:42:26;101040.41;;;8.02;81.19
31483;BME280;18103;52.246;8.052;2023-05-24T01:45:22;101043.22;;;7.99;80.91
31483;BME280;18103;52.246;8.052;2023-05-24T01:50:42;101034.75;;;7.94;81.57
31483;BME280;18103;52.246;8.052;2023-05-24T01:53:12;101040.78;;;7.96;81.22
31483;BME280;18103;52.246;8.052;2023-05-24T01:55:42;101042.53;;;7.96;81.65
31483;BME280;18103;52.246;8.052;2023-05-24T01:58:09;101037.38;;;7.94;81.36
31483;BME280;18103;52.246;8.052;2023-05-24T02:00:37;101040.00;;;7.94;81.38
31483;BME280;18103;52.246;8.052;2023-05-24T02:03:06;101038.25;;;7.95;81.68
31483;BME280;18103;52.246;8.052;2023-05-24T02:05:31;101043.72;;;7.90;81.90
31483;BME280;18103;52.246;8.052;2023-05-24T02:07:59;101031.19;;;7.95;81.45
31483;BME280;18103;52.246;8.052;2023-05-24T02:10:25;101029.66;;;7.91;81.65
31483;BME280;18103;52.246;8.052;2023-05-24T02:12:53;101034.56;;;7.97;81.04
31483;BME280;18103;52.246;8.052;2023-05-24T02:15:18;101038.66;;;7.87;82.03
31483;BME280;18103;52.246;8.052;2023-05-24T02:17:50;101037.97;;;7.83;81.33
31483;BME280;18103;52.246;8.052;2023-05-24T02:20:21;101041.97;;;7.75;82.04
31483;BME280;18103;52.246;8.052;2023-05-24T02:22:47;101034.94;;;7.75;82.37
31483;BME280;18103;52.246;8.052;2023-05-24T02:25:15;101038.41;;;7.76;82.32
31483;BME280;18103;52.246;8.052;2023-05-24T02:27:43;101025.63;;;7.69;81.80
31483;BME280;18103;52.246;8.052;2023-05-24T02:30:12;101032.97;;;7.79;81.97
31483;BME280;18103;52.246;8.052;2023-05-24T02:32:37;101026.38;;;7.71;82.63
31483;BME280;18103;52.246;8.052;2023-05-24T02:35:03;101029.75;;;7.74;82.72
31483;BME280;18103;52.246;8.052;2023-05-24T02:37:29;101024.16;;;7.80;82.10
31483;BME280;18103;52.246;8.052;2023-05-24T02:39:54;101026.88;;;7.78;81.73
31483;BME280;18103;52.246;8.052;2023-05-24T02:42:20;101027.81;;;7.77;82.57
31483;BME280;18103;52.246;8.052;2023-05-24T02:44:45;101030.25;;;7.80;82.45
31483;BME280;18103;52.246;8.052;2023-05-24T02:47:14;101034.69;;;7.80;81.93
31483;BME280;18103;52.246;8.052;2023-05-24T02:49:42;101023.66;;;7.73;83.44
31483;BME280;18103;52.246;8.052;2023-05-24T02:52:10;101032.38;;;7.74;82.69
31483;BME280;18103;52.246;8.052;2023-05-24T02:54:37;101029.44;;;7.80;82.55
31483;BME280;18103;52.246;8.052;2023-05-24T02:57:05;101021.34;;;7.83;82.52
31483;BME280;18103;52.246;8.052;2023-05-24T02:59:31;101019.41;;;7.86;83.13
31483;BME280;18103;52.246;8.052;2023-05-24T03:01:57;101025.97;;;7.79;83.28
31483;BME280;18103;52.246;8.052;2023-05-24T03:04:23;101030.78;;;7.87;82.92
31483;BME280;18103;52.246;8.052;2023-05-24T03:06:48;101036.94;;;7.86;82.92
31483;BME280;18103;52.246;8.052;2023-05-24T03:09:16;101030.59;;;7.90;83.03
31483;BME280;18103;52.246;8.052;2023-05-24T03:11:44;101026.28;;;7.89;83.74
31483;BME280;18103;52.246;8.052;2023-05-24T03:14:12;101033.91;;;7.94;83.78
31483;BME280;18103;52.246;8.052;2023-05-24T03:16:41;101031.00;;;7.98;83.87
31483;BME280;18103;52.246;8.052;2023-05-24T03:19:09;101026.69;;;7.97;84.29
31483;BME280;18103;52.246;8.052;2023-05-24T03:21:36;101019.13;;;8.07;83.42
31483;BME280;18103;52.246;8.052;2023-05-24T03:24:05;101015.75;;;8.05;84.09
31483;BME280;18103;52.246;8.052;2023-05-24T03:26:30;101019.63;;;8.14;83.58
31483;BME280;18103;52.246;8.052;2023-05-24T03:28:55;101016.91;;;8.15;83.64
31483;BME280;18103;52.246;8.052;2023-05-24T03:31:21;101026.50;;;8.16;83.02
31483;BME280;18103;52.246;8.052;2023-05-24T03:33:48;101023.78;;;8.18;83.78
31483;BME280;18103;52.246;8.052;2023-05-24T03:36:13;101023.44;;;8.24;82.30
31483;BME280;18103;52.246;8.052;2023-05-24T03:38:41;101020.22;;;8.19;82.70
31483;BME280;18103;52.246;8.052;2023-05-24T03:41:06;101036.41;;;8.27;83.19
31483;BME280;18103;52.246;8.052;2023-05-24T03:43:34;101028.41;;;8.29;82.74
31483;BME280;18103;52.246;8.052;2023-05-24T03:45:59;101032.25;;;8.23;83.88
31483;BME280;18103;52.246;8.052;2023-05-24T03:48:27;101024.84;;;8.30;82.95
31483;BME280;18103;52.246;8.052;2023-05-24T03:50:52;101023.91;;;8.31;83.73
31483;BME280;18103;52.246;8.052;2023-05-24T03:53:21;101022.03;;;8.33;83.48
31483;BME280;18103;52.246;8.052;2023-05-24T03:55:48;101021.84;;;8.36;83.56
31483;BME280;18103;52.246;8.052;2023-05-24T03:58:14;101025.16;;;8.39;83.78
31483;BME280;18103;52.246;8.052;2023-05-24T04:00:39;101033.41;;;8.49;83.18
31483;BME280;18103;52.246;8.052;2023-05-24T04:03:04;101032.63;;;8.47;83.52
31483;BME280;18103;52.246;8.052;2023-05-24T04:05:33;101033.13;;;8.54;83.30
31483;BME280;18103;52.246;8.052;2023-05-24T04:08:03;101028.59;;;8.56;83.35
31483;BME280;18103;52.246;8.052;2023-05-24T04:10:28;101035.03;;;8.66;82.53
31483;BME280;18103;52.246;8.052;2023-05-24T04:12:54;101034.56;;;8.74;81.85
31483;BME280;18103;52.246;8.052;2023-05-24T04:15:23;101031.00;;;8.75;81.94
31483;BME280;18103;52.246;8.052;2023-05-24T04:17:48;101027.78;;;8.70;82.74
31483;BME280;18103;52.246;8.052;2023-05-24T04:20:21;101035.34;;;8.76;82.53
31483;BME280;18103;52.246;8.052;2023-05-24T04:22:53;101035.44;;;8.89;81.78
31483;BME280;18103;52.246;8.052;2023-05-24T04:25:19;101034.31;;;8.93;81.19
31483;BME280;18103;52.246;8.052;2023-05-24T04:27:47;101020.56;;;8.73;82.00
31483;BME280;18103;52.246;8.052;2023-05-24T04:30:14;101024.81;;;8.76;81.79
31483;BME280;18103;52.246;8.052;2023-05-24T04:32:42;101020.75;;;8.70;81.66
31483;BME280;18103;52.246;8.052;2023-05-24T04:35:11;101026.66;;;8.74;81.74
31483;BME280;18103;52.246;8.052;2023-05-24T04:37:36;101025.00;;;8.73;82.16
31483;BME280;18103;52.246;8.052;2023-05-24T04:40:04;101037.59;;;8.82;82.13
31483;BME280;18103;52.246;8.052;2023-05-24T04:42:30;101032.25;;;8.98;81.27
31483;BME280;18103;52.246;8.052;2023-05-24T04:44:56;101028.13;;;8.94;81.59
31483;BME280;18103;52.246;8.052;2023-05-24T04:47:21;101030.16;;;9.03;81.75
31483;BME280;18103;52.246;8.052;2023-05-24T04:49:49;101021.44;;;9.03;82.02
31483;BME280;18103;52.246;8.052;2023-05-24T04:52:15;101026.50;;;8.92;82.53
31483;BME280;18103;52.246;8.052;2023-05-24T04:54:40;101025.28;;;8.83;81.81
31483;BME280;18103;52.246;8.052;2023-05-24T04:57:06;101025.00;;;9.02;81.50
31483;BME280;18103;52.246;8.052;2023-05-24T04:59:34;101029.53;;;9.14;81.66
31483;BME280;18103;52.246;8.052;2023-05-24T05:01:59;101030.47;;;9.13;82.13
31483;BME280;18103;52.246;8.052;2023-05-24T05:04:27;101035.38;;;9.19;81.64
31483;BME280;18103;52.246;8.052;2023-05-24T05:06:56;101036.00;;;9.23;82.34
31483;BME280;18103;52.246;8.052;2023-05-24T05:09:21;101042.31;;;9.20;82.37
31483;BME280;18103;52.246;8.052;2023-05-24T05:11:51;101037.41;;;9.29;81.30
31483;BME280;18103;52.246;8.052;2023-05-24T05:14:21;101039.47;;;9.38;81.00
31483;BME280;18103;52.246;8.052;2023-05-24T05:16:48;101036.44;;;9.44;81.53
31483;BME280;18103;52.246;8.052;2023-05-24T05:19:16;101038.34;;;9.42;81.33
31483;BME280;18103;52.246;8.052;2023-05-24T05:21:44;101031.47;;;9.39;81.92
31483;BME280;18103;52.246;8.052;2023-05-24T05:24:09;101039.66;;;9.49;81.91
31483;BME280;18103;52.246;8.052;2023-05-24T05:26:34;101045.69;;;9.37;81.62
31483;BME280;18103;52.246;8.052;2023-05-24T05:29:02;101050.03;;;9.38;81.46
31483;BME280;18103;52.246;8.052;2023-05-24T05:31:28;101050.09;;;9.51;81.14
31483;BME280;18103;52.246;8.052;2023-05-24T05:33:53;101050.41;;;9.46;81.45
31483;BME280;18103;52.246;8.052;2023-05-24T05:36:19;101047.16;;;9.55;80.82
31483;BME280;18103;52.246;8.052;2023-05-24T05:38:44;101049.81;;;9.55;80.76
31483;BME280;18103;52.246;8.052;2023-05-24T05:41:12;101048.88;;;9.56;81.28
31483;BME280;18103;52.246;8.052;2023-05-24T05:43:38;101054.34;;;9.53;80.98
31483;BME280;18103;52.246;8.052;2023-05-24T05:46:03;101057.16;;;9.50;80.98
31483;BME280;18103;52.246;8.052;2023-05-24T05:48:31;101057.91;;;9.52;80.98
31483;BME280;18103;52.246;8.052;2023-05-24T05:50:56;101056.41;;;9.63;80.91
31483;BME280;18103;52.246;8.052;2023-05-24T05:53:24;101057.44;;;9.60;81.05
31483;BME280;18103;52.246;8.052;2023-05-24T05:55:51;101058.94;;;9.50;80.83
31483;BME280;18103;52.246;8.052;2023-05-24T05:58:17;101060.19;;;9.58;80.44
31483;BME280;18103;52.246;8.052;2023-05-24T06:00:42;101044.91;;;9.64;80.61
31483;BME280;18103;52.246;8.052;2023-05-24T06:03:07;101048.94;;;9.69;80.92
31483;BME280;18103;52.246;8.052;2023-05-24T06:05:33;101051.56;;;9.84;80.24
31483;BME280;18103;52.246;8.052;2023-05-24T06:07:58;101056.63;;;9.87;80.47
31483;BME280;18103;52.246;8.052;2023-05-24T06:10:26;101048.72;;;9.87;80.48
31483;BME280;18103;52.246;8.052;2023-05-24T06:12:51;101052.75;;;9.92;80.17
31483;BME280;18103;52.246;8.052;2023-05-24T06:15:19;101058.03;;;9.92;80.21
31483;BME280;18103;52.246;8.052;2023-05-24T06:17:48;101051.31;;;10.01;80.00
31483;BME280;18103;52.246;8.052;2023-05-24T06:20:15;101051.75;;;10.08;80.31
31483;BME280;18103;52.246;8.052;2023-05-24T06:22:41;101054.88;;;10.00;80.22
31483;BME280;18103;52.246;8.052;2023-05-24T06:25:09;101064.34;;;10.17;80.09
31483;BME280;18103;52.246;8.052;2023-05-24T06:27:41;101063.28;;;10.20;80.20
31483;BME280;18103;52.246;8.052;2023-05-24T06:30:07;101058.25;;;10.30;79.64
31483;BME280;18103;52.246;8.052;2023-05-24T06:32:37;101069.00;;;10.26;79.60
31483;BME280;18103;52.246;8.052;2023-05-24T06:35:03;101065.31;;;10.29;79.63
31483;BME280;18103;52.246;8.052;2023-05-24T06:37:28;101070.91;;;10.24;79.50
31483;BME280;18103;52.246;8.052;2023-05-24T06:39:57;101067.09;;;10.43;79.71
31483;BME280;18103;52.246;8.052;2023-05-24T06:42:23;101061.38;;;10.36;79.15
31483;BME280;18103;52.246;8.052;2023-05-24T06:44:48;101077.34;;;10.48;78.78
31483;BME280;18103;52.246;8.052;2023-05-24T06:47:13;101074.75;;;10.60;78.55
31483;BME280;18103;52.246;8.052;2023-05-24T06:49:39;101070.53;;;10.71;78.56
31483;BME280;18103;52.246;8.052;2023-05-24T06:52:04;101080.03;;;10.73;78.16
31483;BME280;18103;52.246;8.052;2023-05-24T06:54:31;101080.03;;;10.73;77.91
31483;BME280;18103;52.246;8.052;2023-05-24T06:56:57;101075.81;;;10.84;77.90
31483;BME280;18103;52.246;8.052;2023-05-24T06:59:23;101080.25;;;10.83;77.49
31483;BME280;18103;52.246;8.052;2023-05-24T07:01:48;101084.56;;;10.84;77.50
31483;BME280;18103;52.246;8.052;2023-05-24T07:04:17;101089.84;;;10.84;77.06
31483;BME280;18103;52.246;8.052;2023-05-24T07:06:42;101090.84;;;10.96;77.27
31483;BME280;18103;52.246;8.052;2023-05-24T07:09:09;101086.94;;;11.02;77.24
31483;BME280;18103;52.246;8.052;2023-05-24T07:11:35;101087.75;;;10.89;77.02
31483;BME280;18103;52.246;8.052;2023-05-24T07:14:03;101083.75;;;10.96;77.13
31483;BME280;18103;52.246;8.052;2023-05-24T07:16:30;101097.16;;;11.06;76.69
31483;BME280;18103;52.246;8.052;2023-05-24T07:18:56;101095.28;;;11.21;77.09
31483;BME280;18103;52.246;8.052;2023-05-24T07:21:22;101091.38;;;11.27;76.76
31483;BME280;18103;52.246;8.052;2023-05-24T07:23:49;101091.03;;;11.32;76.60
31483;BME280;18103;52.246;8.052;2023-05-24T07:26:15;101100.78;;;11.31;75.90
31483;BME280;18103;52.246;8.052;2023-05-24T07:28:41;101097.47;;;11.27;75.79
31483;BME280;18103;52.246;8.052;2023-05-24T07:31:09;101096.00;;;11.23;75.80
31483;BME280;18103;52.246;8.052;2023-05-24T07:33:35;101101.09;;;11.26;75.73
31483;BME280;18103;52.246;8.052;2023-05-24T07:36:02;101092.31;;;11.52;75.46
31483;BME280;18103;52.246;8.052;2023-05-24T07:38:29;101091.03;;;11.57;75.99
31483;BME280;18103;52.246;8.052;2023-05-24T07:40:58;101099.47;;;11.62;75.32
31483;BME280;18103;52.246;8.052;2023-05-24T07:43:24;101102.53;;;11.56;75.12
31483;BME280;18103;52.246;8.052;2023-05-24T07:45:53;101097.69;;;11.50;75.22
31483;BME280;18103;52.246;8.052;2023-05-24T07:48:19;101095.88;;;11.51;75.21
31483;BME280;18103;52.246;8.052;2023-05-24T07:50:50;101100.41;;;11.74;74.90
31483;BME280;18103;52.246;8.052;2023-05-24T07:53:17;101098.53;;;11.88;74.95
31483;BME280;18103;52.246;8.052;2023-05-24T07:55:42;101091.41;;;11.77;75.32
31483;BME280;18103;52.246;8.052;2023-05-24T07:58:09;101099.88;;;11.69;74.46
31483;BME280;18103;52.246;8.052;2023-05-24T08:00:40;101095.72;;;11.78;74.76
31483;BME280;18103;52.246;8.052;2023-05-24T08:03:08;101096.75;;;11.88;74.26
31483;BME280;18103;52.246;8.052;2023-05-24T08:05:33;101085.44;;;11.86;73.38
31483;BME280;18103;52.246;8.052;2023-05-24T08:08:01;101087.47;;;11.95;73.33
31483;BME280;18103;52.246;8.052;2023-05-24T08:10:29;101096.75;;;11.88;73.16
31483;BME280;18103;52.246;8.052;2023-05-24T08:12:54;101096.53;;;11.91;72.98
31483;BME280;18103;52.246;8.052;2023-05-24T08:15:20;101096.13;;;11.85;72.56
31483;BME280;18103;52.246;8.052;2023-05-24T08:17:47;101094.13;;;11.88;72.58
31483;BME280;18103;52.246;8.052;2023-05-24T08:20:12;101093.28;;;11.75;72.86
31483;BME280;18103;52.246;8.052;2023-05-24T08:22:42;101089.91;;;11.86;72.76
31483;BME280;18103;52.246;8.052;2023-05-24T08:25:12;101094.34;;;11.85;72.82
31483;BME280;18103;52.246;8.052;2023-05-24T08:27:38;101093.88;;;12.04;72.77
31483;BME280;18103;52.246;8.052;2023-05-24T08:30:04;101101.31;;;11.99;72.96
31483;BME280;18103;52.246;8.052;2023-05-24T08:32:29;101107.44;;;12.00;72.86
31483;BME280;18103;52.246;8.052;2023-05-24T08:34:56;101109.34;;;11.97;72.35
31483;BME280;18103;52.246;8.052;2023-05-24T08:37:21;101102.88;;;12.02;71.99
31483;BME280;18103;52.246;8.052;2023-05-24T08:39:52;101098.28;;;12.17;71.57
31483;BME280;18103;52.246;8.052;2023-05-24T08:42:17;101090.34;;;12.17;72.36
31483;BME280;18103;52.246;8.052;2023-05-24T08:44:48;101097.84;;;12.23;72.14
31483;BME280;18103;52.246;8.052;2023-05-24T08:47:19;101097.63;;;12.26;71.39
31483;BME280;18103;52.246;8.052;2023-05-24T08:49:46;101097.84;;;12.23;71.16
31483;BME280;18103;52.246;8.052;2023-05-24T08:52:13;101104.22;;;12.20;70.66
31483;BME280;18103;52.246;8.052;2023-05-24T08:54:41;101095.44;;;12.31;70.88
31483;BME280;18103;52.246;8.052;2023-05-24T08:57:08;101104.84;;;12.35;71.11
31483;BME280;18103;52.246;8.052;2023-05-24T08:59:39;101104.19;;;12.44;71.26
31483;BME280;18103;52.246;8.052;2023-05-24T09:02:08;101102.25;;;12.46;71.16
31483;BME280;18103;52.246;8.052;2023-05-24T09:04:38;101110.31;;;12.45;71.92
31483;BME280;18103;52.246;8.052;2023-05-24T09:07:06;101108.84;;;12.41;71.84
31483;BME280;18103;52.246;8.052;2023-05-24T09:09:36;101105.97;;;12.32;71.77
31483;BME280;18103;52.246;8.052;2023-05-24T09:12:06;101112.59;;;12.38;71.68
31483;BME280;18103;52.246;8.052;2023-05-24T09:14:36;101117.44;;;12.20;74.92
31483;BME280;18103;52.246;8.052;2023-05-24T09:17:02;101115.28;;;12.25;74.46
31483;BME280;18103;52.246;8.052;2023-05-24T09:19:27;101115.09;;;12.28;74.13
31483;BME280;18103;52.246;8.052;2023-05-24T09:21:53;101119.09;;;12.21;75.41
31483;BME280;18103;52.246;8.052;2023-05-24T09:24:22;101116.16;;;12.26;75.14
31483;BME280;18103;52.246;8.052;2023-05-24T09:26:50;101119.28;;;12.31;75.39
31483;BME280;18103;52.246;8.052;2023-05-24T09:29:21;101127.38;;;12.41;74.60
31483;BME280;18103;52.246;8.052;2023-05-24T09:31:48;101130.63;;;12.33;75.95
31483;BME280;18103;52.246;8.052;2023-05-24T09:34:14;101123.09;;;12.27;75.26
31483;BME280;18103;52.246;8.052;2023-05-24T09:36:40;101122.66;;;12.33;75.07
31483;BME280;18103;52.246;8.052;2023-05-24T09:39:11;101128.69;;;12.35;76.32
31483;BME280;18103;52.246;8.052;2023-05-24T09:41:37;101128.50;;;12.25;76.37
31483;BME280;18103;52.246;8.052;2023-05-24T09:44:05;101129.19;;;12.40;75.51
31483;BME280;18103;52.246;8.052;2023-05-24T09:46:35;101128.81;;;12.33;74.90
31483;BME280;18103;52.246;8.052;2023-05-24T09:49:02;101127.78;;;12.23;76.06
31483;BME280;18103;52.246;8.052;2023-05-24T09:51:28;101130.38;;;12.36;75.68
31483;BME280;18103;52.246;8.052;2023-05-24T09:54:00;101142.91;;;12.34;75.11
31483;BME280;18103;52.246;8.052;2023-05-24T09:56:26;101133.69;;;12.27;74.97
31483;BME280;18103;52.246;8.052;2023-05-24T09:58:52;101134.78;;;12.24;75.32
31483;BME280;18103;52.246;8.052;2023-05-24T10:01:22;101133.69;;;12.27;74.68
31483;BME280;18103;52.246;8.052;2023-05-24T10:03:57;101127.91;;;12.46;74.12
31483;BME280;18103;52.246;8.052;2023-05-24T10:06:26;101132.84;;;12.50;74.24
31483;BME280;18103;52.246;8.052;2023-05-24T10:08:54;101132.25;;;12.47;74.62
31483;BME280;18103;52.246;8.052;2023-05-24T10:11:21;101128.97;;;12.43;75.83
31483;BME280;18103;52.246;8.052;2023-05-24T10:13:49;101133.88;;;12.37;75.40
31483;BME280;18103;52.246;8.052;2023-05-24T10:16:15;101130.44;;;12.47;75.32
31483;BME280;18103;52.246;8.052;2023-05-24T10:18:40;101134.63;;;12.39;76.68
31483;BME280;18103;52.246;8.052;2023-05-24T10:21:09;101126.44;;;12.42;75.74
31483;BME280;18103;52.246;8.052;2023-05-24T10:23:38;101124.97;;;12.38;75.41
31483;BME280;18103;52.246;8.052;2023-05-24T10:26:14;101124.69;;;12.54;74.52
31483;BME280;18103;52.246;8.052;2023-05-24T10:28:40;101126.31;;;12.68;75.18
31483;BME280;18103;52.246;8.052;2023-05-24T10:31:17;101124.13;;;12.61;75.45
31483;BME280;18103;52.246;8.052;2023-05-24T10:33:47;101124.91;;;12.50;75.10
31483;BME280;18103;52.246;8.052;2023-05-24T10:36:16;101130.88;;;12.65;74.76
31483;BME280;18103;52.246;8.052;2023-05-24T10:38:45;101128.09;;;12.67;75.76
31483;BME280;18103;52.246;8.052;2023-05-24T10:41:13;101134.00;;;12.59;74.79
31483;BME280;18103;52.246;8.052;2023-05-24T10:43:38;101130.19;;;12.50;74.49
31483;BME280;18103;52.246;8.052;2023-05-24T10:46:08;101127.13;;;12.57;74.16
31483;BME280;18103;52.246;8.052;2023-05-24T10:48:36;101123.03;;;12.64;73.83
31483;BME280;18103;52.246;8.052;2023-05-24T10:54:09;101128.41;;;12.87;73.81
31483;BME280;18103;52.246;8.052;2023-05-24T10:56:39;101131.22;;;12.96;73.64
31483;BME280;18103;52.246;8.052;2023-05-24T10:59:06;101126.16;;;12.93;72.54
31483;BME280;18103;52.246;8.052;2023-05-24T11:01:32;101128.19;;;13.01;72.42
31483;BME280;18103;52.246;8.052;2023-05-24T11:04:25;101127.00;;;13.05;72.02
31483;BME280;18103;52.246;8.052;2023-05-24T11:07:03;101127.09;;;13.39;72.34
31483;BME280;18103;52.246;8.052;2023-05-24T11:09:31;101126.09;;;13.29;71.72
31483;BME280;18103;52.246;8.052;2023-05-24T11:12:01;101134.53;;;13.34;71.43
31483;BME280;18103;52.246;8.052;2023-05-24T11:14:29;101125.94;;;13.19;71.52
31483;BME280;18103;52.246;8.052;2023-05-24T11:16:56;101123.78;;;13.13;70.36
31483;BME280;18103;52.246;8.052;2023-05-24T11:19:53;101126.06;;;13.17;71.01
31483;BME280;18103;52.246;8.052;2023-05-24T11:22:19;101125.59;;;13.12;70.69
31483;BME280;18103;52.246;8.052;2023-05-24T11:24:45;101122.97;;;13.24;70.46
31483;BME280;18103;52.246;8.052;2023-05-24T11:27:13;101127.78;;;13.18;70.47
31483;BME280;18103;52.246;8.052;2023-05-24T11:29:42;101119.56;;;13.22;70.92
31483;BME280;18103;52.246;8.052;2023-05-24T11:32:09;101125.13;;;13.18;70.47
31483;BME280;18103;52.246;8.052;2023-05-24T11:34:38;101122.34;;;13.20;70.88
31483;BME280;18103;52.246;8.052;2023-05-24T11:37:04;101128.72;;;13.29;70.60
31483;BME280;18103;52.246;8.052;2023-05-24T11:39:35;101123.38;;;13.42;70.62
31483;BME280;18103;52.246;8.052;2023-05-24T11:42:07;101129.34;;;13.32;70.63
31483;BME280;18103;52.246;8.052;2023-05-24T11:44:35;101121.28;;;13.34;70.47
31483;BME280;18103;52.246;8.052;2023-05-24T11:47:06;101130.00;;;13.47;70.91
31483;BME280;18103;52.246;8.052;2023-05-24T11:49:34;101126.63;;;13.57;70.18
31483;BME280;18103;52.246;8.052;2023-05-24T11:52:00;101121.66;;;13.29;68.49
31483;BME280;18103;52.246;8.052;2023-05-24T11:54:27;101120.59;;;13.43;68.92
31483;BME280;18103;52.246;8.052;2023-05-24T11:56:56;101119.75;;;13.54;69.44
31483;BME280;18103;52.246;8.052;2023-05-24T11:59:25;101120.09;;;13.61;68.76
31483;BME280;18103;52.246;8.052;2023-05-24T12:01:59;101110.56;;;13.58;68.03
31483;BME280;18103;52.246;8.052;2023-05-24T12:04:26;101107.28;;;13.89;69.23
31483;BME280;18103;52.246;8.052;2023-05-24T12:06:54;101114.25;;;14.12;68.72
31483;BME280;18103;52.246;8.052;2023-05-24T12:09:22;101114.56;;;14.30;68.57
31483;BME280;18103;52.246;8.052;2023-05-24T12:11:49;101108.59;;;14.38;67.85
31483;BME280;18103;52.246;8.052;2023-05-24T12:14:28;101115.22;;;14.44;67.93
31483;BME280;18103;52.246;8.052;2023-05-24T12:16:59;101115.34;;;14.42;67.99
31483;BME280;18103;52.246;8.052;2023-05-24T12:19:29;101119.53;;;14.56;67.10
31483;BME280;18103;52.246;8.052;2023-05-24T12:21:58;101115.66;;;14.28;67.41
31483;BME280;18103;52.246;8.052;2023-05-24T12:24:25;101117.00;;;14.22;67.59
31483;BME280;18103;52.246;8.052;2023-05-24T12:26:51;101118.00;;;13.98;67.66
31483;BME280;18103;52.246;8.052;2023-05-24T12:29:18;101124.41;;;13.96;67.20
31483;BME280;18103;52.246;8.052;2023-05-24T12:31:47;101122.97;;;13.92;67.57
31483;BME280;18103;52.246;8.052;2023-05-24T12:34:17;101116.22;;;13.76;67.71
31483;BME280;18103;52.246;8.052;2023-05-24T12:36:46;101121.78;;;13.73;67.88
31483;BME280;18103;52.246;8.052;2023-05-24T12:39:25;101124.19;;;13.76;67.97
31483;BME280;18103;52.246;8.052;2023-05-24T12:42:01;101123.13;;;13.67;68.08
31483;BME280;18103;52.246;8.052;2023-05-24T12:44:33;101120.81;;;13.85;67.87
31483;BME280;18103;52.246;8.052;2023-05-24T12:47:04;101127.22;;;13.83;68.01
31483;BME280;18103;52.246;8.052;2023-05-24T12:49:35;101130.59;;;13.74;68.21
31483;BME280;18103;52.246;8.052;2023-05-24T12:52:03;101131.44;;;13.85;67.77
31483;BME280;18103;52.246;8.052;2023-05-24T12:54:29;101121.28;;;13.79;68.46
31483;BME280;18103;52.246;8.052;2023-05-24T12:57:00;101123.47;;;13.85;68.54
31483;BME280;18103;52.246;8.052;2023-05-24T12:59:29;101127.19;;;13.94;68.07
31483;BME280;18103;52.246;8.052;2023-05-24T13:01:55;101121.38;;;14.12;68.06
31483;BME280;18103;52.246;8.052;2023-05-24T13:04:22;101126.34;;;13.94;68.28
31483;BME280;18103;52.246;8.052;2023-05-24T13:06:50;101119.34;;;13.93;67.80
31483;BME280;18103;52.246;8.052;2023-05-24T13:09:15;101123.31;;;13.98;67.87
31483;BME280;18103;52.246;8.052;2023-05-24T13:11:45;101118.84;;;13.99;67.95
31483;BME280;18103;52.246;8.052;2023-05-24T13:14:11;101124.25;;;14.09;66.91
31483;BME280;18103;52.246;8.052;2023-05-24T13:16:36;101126.06;;;14.19;67.37
31483;BME280;18103;52.246;8.052;2023-05-24T13:19:04;101121.59;;;14.09;67.45